createdAt,value
2023-02-20T00:01:20.582Z,90.32
2023-02-20T00:03:48.070Z,89.90
2023-02-20T00:06:15.320Z,89.98
2023-02-20T00:08:42.623Z,90.23
2023-02-20T00:11:10.050Z,89.95
2023-02-20T00:13:37.488Z,90.34
2023-02-20T00:16:05.431Z,89.83
2023-02-20T00:18:34.104Z,90.01
2023-02-20T00:21:01.330Z,90.00
2023-02-20T00:23:28.604Z,90.37
2023-02-20T00:25:55.942Z,89.58
2023-02-20T00:28:23.112Z,90.45
2023-02-20T00:30:50.253Z,90.02
2023-02-20T00:33:17.569Z,90.08
2023-02-20T00:35:46.230Z,89.72
2023-02-20T00:38:13.876Z,90.22
2023-02-20T00:40:41.228Z,89.90
2023-02-20T00:43:08.569Z,89.95
2023-02-20T00:45:36.055Z,89.75
2023-02-20T00:48:03.580Z,89.98
2023-02-20T00:50:31.060Z,90.38
2023-02-20T00:52:59.610Z,90.07
2023-02-20T00:55:26.885Z,90.00
2023-02-20T00:57:55.444Z,89.87
2023-02-20T01:00:27.426Z,90.04
2023-02-20T01:02:55.100Z,89.53
2023-02-20T01:05:24.029Z,89.79
2023-02-20T01:07:54.349Z,89.69
2023-02-20T01:10:22.971Z,90.24
2023-02-20T01:12:50.342Z,90.02
2023-02-20T01:15:17.686Z,89.51
2023-02-20T01:17:44.949Z,89.61
2023-02-20T01:20:12.691Z,90.31
2023-02-20T01:22:39.945Z,90.14
2023-02-20T01:25:11.069Z,89.52
2023-02-20T01:27:39.790Z,90.07
2023-02-20T01:30:08.606Z,89.76
2023-02-20T01:32:36.639Z,90.27
2023-02-20T01:35:03.941Z,90.34
2023-02-20T01:37:31.281Z,90.00
2023-02-20T01:39:58.695Z,90.38
2023-02-20T01:42:30.343Z,90.00
2023-02-20T01:47:52.854Z,90.01
2023-02-20T01:50:25.582Z,90.01
2023-02-20T01:52:57.062Z,90.31
2023-02-20T01:55:27.363Z,90.06
2023-02-20T01:57:59.296Z,89.91
2023-02-20T02:00:27.885Z,90.22
2023-02-20T02:03:05.014Z,90.11
2023-02-20T02:05:33.910Z,89.94
2023-02-20T02:08:04.840Z,89.75
2023-02-20T02:10:37.856Z,89.67
2023-02-20T02:13:06.741Z,89.36
2023-02-20T02:15:34.124Z,89.97
2023-02-20T02:18:29.856Z,89.49
2023-02-20T02:21:20.335Z,89.56
2023-02-20T02:24:27.099Z,89.24
2023-02-20T02:27:37.310Z,89.65
2023-02-20T02:30:33.474Z,89.55
2023-02-20T02:33:35.278Z,89.56
2023-02-20T02:36:26.165Z,89.50
2023-02-20T02:39:01.842Z,88.93
2023-02-20T02:41:39.031Z,89.51
2023-02-20T02:44:13.273Z,89.14
2023-02-20T02:46:46.332Z,89.02
2023-02-20T02:49:23.920Z,88.85
2023-02-20T02:51:55.090Z,88.81
2023-02-20T02:54:28.430Z,89.32
2023-02-20T02:57:20.841Z,89.41
2023-02-20T02:59:52.065Z,89.37
2023-02-20T03:02:23.108Z,89.43
2023-02-20T03:04:53.257Z,88.79
2023-02-20T03:07:23.883Z,88.72
2023-02-20T03:09:56.660Z,89.01
2023-02-20T03:12:26.525Z,89.26
2023-02-20T03:15:17.608Z,88.43
2023-02-20T03:17:48.792Z,89.07
2023-02-20T03:20:20.565Z,89.31
2023-02-20T03:22:53.618Z,88.47
2023-02-20T03:25:26.209Z,89.09
2023-02-20T03:27:59.330Z,88.69
2023-02-20T03:30:38.946Z,88.76
2023-02-20T03:33:29.997Z,89.12
2023-02-20T03:36:20.412Z,88.03
2023-02-20T03:39:13.389Z,88.58
2023-02-20T03:42:01.881Z,88.84
2023-02-20T03:44:32.455Z,88.66
2023-02-20T03:47:02.943Z,88.59
2023-02-20T03:49:35.685Z,88.58
2023-02-20T03:52:03.565Z,88.28
2023-02-20T03:54:41.804Z,88.89
2023-02-20T03:57:13.268Z,88.18
2023-02-20T03:59:46.502Z,88.48
2023-02-20T04:02:19.454Z,88.15
2023-02-20T04:04:52.024Z,88.86
2023-02-20T04:07:24.625Z,88.85
2023-02-20T04:09:57.152Z,88.91
2023-02-20T04:12:27.851Z,88.18
2023-02-20T04:14:58.507Z,88.70
2023-02-20T04:17:32.377Z,88.61
2023-02-20T04:20:00.486Z,88.34
2023-02-20T04:22:38.357Z,88.71
2023-02-20T04:25:16.302Z,88.86
2023-02-20T04:27:44.212Z,88.41
2023-02-20T04:30:12.632Z,88.39
2023-02-20T04:32:39.959Z,88.21
2023-02-20T04:35:10.285Z,88.38
2023-02-20T04:37:37.886Z,88.87
2023-02-20T04:40:09.062Z,88.81
2023-02-20T04:42:37.286Z,88.71
2023-02-20T04:45:05.368Z,88.49
2023-02-20T04:47:32.844Z,88.33
2023-02-20T04:50:00.352Z,88.33
2023-02-20T04:52:27.788Z,88.73
2023-02-20T04:54:55.808Z,88.63
2023-02-20T04:57:24.502Z,88.55
2023-02-20T04:59:52.689Z,88.56
2023-02-20T05:02:19.890Z,88.23
2023-02-20T05:04:47.179Z,88.40
2023-02-20T05:07:18.073Z,88.35
2023-02-20T05:09:45.361Z,88.05
2023-02-20T05:12:12.613Z,88.59
2023-02-20T05:14:41.276Z,88.05
2023-02-20T05:17:08.855Z,88.12
2023-02-20T05:19:36.435Z,88.46
2023-02-20T05:22:22.856Z,88.42
2023-02-20T05:24:51.856Z,88.17
2023-02-20T05:27:21.686Z,87.81
2023-02-20T05:29:53.140Z,88.12
2023-02-20T05:32:22.497Z,88.33
2023-02-20T05:34:49.831Z,88.19
2023-02-20T05:37:19.228Z,87.93
2023-02-20T05:39:47.218Z,87.67
2023-02-20T05:42:15.544Z,87.70
2023-02-20T05:44:43.736Z,88.13
2023-02-20T05:47:12.434Z,88.19
2023-02-20T05:49:39.643Z,87.73
2023-02-20T05:52:12.606Z,87.58
2023-02-20T05:54:41.370Z,87.62
2023-02-20T05:57:11.395Z,87.82
2023-02-20T05:59:38.627Z,87.64
2023-02-20T06:02:05.970Z,87.39
2023-02-20T06:04:34.620Z,87.84
2023-02-20T06:07:01.827Z,87.87
2023-02-20T06:09:29.207Z,87.39
2023-02-20T06:11:57.572Z,87.18
2023-02-20T06:14:26.541Z,87.70
2023-02-20T06:16:54.082Z,87.49
2023-02-20T06:19:24.691Z,87.30
2023-02-20T06:21:54.437Z,87.39
2023-02-20T06:24:22.095Z,87.42
2023-02-20T06:26:49.575Z,86.79
2023-02-20T06:29:17.711Z,86.98
2023-02-20T06:31:45.395Z,86.91
2023-02-20T06:34:13.422Z,86.72
2023-02-20T06:36:42.404Z,87.24
2023-02-20T06:39:16.667Z,86.75
2023-02-20T06:41:44.676Z,87.08
2023-02-20T06:44:13.917Z,87.04
2023-02-20T06:46:41.571Z,86.45
2023-02-20T06:49:10.012Z,86.83
2023-02-20T06:51:37.198Z,87.08
2023-02-20T06:54:04.855Z,87.02
2023-02-20T06:56:35.711Z,86.73
2023-02-20T06:59:09.325Z,86.54
2023-02-20T07:01:41.190Z,86.23
2023-02-20T07:04:16.138Z,86.44
2023-02-20T07:06:43.710Z,86.57
2023-02-20T07:09:11.009Z,86.21
2023-02-20T07:11:39.844Z,86.39
2023-02-20T07:14:07.220Z,85.91
2023-02-20T07:16:34.876Z,86.06
2023-02-20T07:19:02.177Z,86.16
2023-02-20T07:21:29.429Z,85.85
2023-02-20T07:23:56.798Z,85.65
2023-02-20T07:26:25.782Z,85.90
2023-02-20T07:28:55.512Z,86.09
2023-02-20T07:31:22.792Z,86.07
2023-02-20T07:33:50.015Z,85.74
2023-02-20T07:36:17.396Z,85.81
2023-02-20T07:38:53.975Z,85.82
2023-02-20T07:41:21.906Z,85.62
2023-02-20T07:43:49.191Z,85.73
2023-02-20T07:46:20.241Z,85.79
2023-02-20T07:48:47.887Z,85.87
2023-02-20T07:51:15.791Z,85.98
2023-02-20T07:53:48.214Z,85.65
2023-02-20T07:56:15.556Z,85.63
2023-02-20T07:58:42.997Z,85.82
2023-02-20T08:01:10.149Z,85.66
2023-02-20T08:03:39.053Z,85.63
2023-02-20T08:06:06.725Z,85.52
2023-02-20T08:08:34.017Z,84.99
2023-02-20T08:11:08.815Z,85.09
2023-02-20T08:13:37.111Z,85.28
2023-02-20T08:16:05.347Z,85.40
2023-02-20T08:18:32.887Z,85.19
2023-02-20T08:21:01.483Z,84.90
2023-02-20T08:23:29.166Z,85.15
2023-02-20T08:25:56.509Z,85.32
2023-02-20T08:28:24.236Z,85.09
2023-02-20T08:30:52.097Z,84.92
2023-02-20T08:33:19.292Z,84.36
2023-02-20T08:35:48.601Z,84.71
2023-02-20T08:38:29.911Z,84.47
2023-02-20T08:40:58.208Z,84.15
2023-02-20T08:43:27.993Z,83.98
2023-02-20T08:45:55.890Z,83.95
2023-02-20T08:48:23.166Z,84.05
2023-02-20T08:50:50.432Z,83.95
2023-02-20T08:53:17.750Z,83.86
2023-02-20T08:55:46.599Z,83.68
2023-02-20T08:58:14.172Z,83.81
2023-02-20T09:00:41.423Z,83.83
2023-02-20T09:03:08.878Z,83.55
2023-02-20T09:05:39.069Z,83.82
2023-02-20T09:08:06.843Z,83.55
2023-02-20T09:10:34.495Z,83.48
2023-02-20T09:13:03.932Z,83.42
2023-02-20T09:15:36.022Z,83.18
2023-02-20T09:18:03.625Z,83.06
2023-02-20T09:20:30.923Z,82.97
2023-02-20T09:23:00.428Z,83.04
2023-02-20T09:25:27.648Z,82.93
2023-02-20T09:27:54.945Z,82.88
2023-02-20T09:30:24.089Z,82.96
2023-02-20T09:32:52.032Z,82.81
2023-02-20T09:35:22.819Z,82.64
2023-02-20T09:37:50.391Z,82.60
2023-02-20T09:40:21.816Z,82.21
2023-02-20T09:43:15.453Z,82.15
2023-02-20T09:45:51.374Z,82.04
2023-02-20T09:48:37.054Z,82.15
2023-02-20T09:51:07.609Z,82.43
2023-02-20T09:53:39.128Z,82.18
2023-02-20T09:56:13.418Z,82.03
2023-02-20T09:58:44.549Z,81.52
2023-02-20T10:01:15.983Z,81.49
2023-02-20T10:03:54.701Z,81.68
2023-02-20T10:06:24.899Z,81.50
2023-02-20T10:08:53.442Z,81.51
2023-02-20T10:11:32.193Z,81.07
2023-02-20T10:14:14.883Z,81.29
2023-02-20T10:16:50.414Z,81.00
2023-02-20T10:19:22.961Z,80.88
2023-02-20T10:22:01.468Z,81.30
2023-02-20T10:24:42.916Z,81.14
2023-02-20T10:27:23.909Z,80.94
2023-02-20T10:29:52.662Z,81.16
2023-02-20T10:32:25.743Z,80.78
2023-02-20T10:34:59.002Z,81.03
2023-02-20T10:37:46.307Z,80.73
2023-02-20T10:40:20.074Z,80.70
2023-02-20T10:42:51.533Z,80.40
2023-02-20T10:45:28.373Z,80.69
2023-02-20T10:48:04.252Z,80.38
2023-02-20T10:50:36.764Z,80.23
2023-02-20T10:53:13.900Z,79.89
2023-02-20T10:55:46.427Z,79.52
2023-02-20T10:58:19.138Z,79.90
2023-02-20T11:00:50.623Z,80.09
2023-02-20T11:03:24.823Z,79.79
2023-02-20T11:05:55.798Z,80.07
2023-02-20T11:08:24.098Z,79.98
2023-02-20T11:10:57.997Z,79.85
2023-02-20T11:13:26.363Z,79.42
2023-02-20T11:15:56.696Z,79.67
2023-02-20T11:18:30.896Z,80.02
2023-02-20T11:20:58.231Z,79.74
2023-02-20T11:23:39.379Z,79.30
2023-02-20T11:26:32.389Z,79.48
2023-02-20T11:29:02.449Z,79.59
2023-02-20T11:31:30.494Z,79.54
2023-02-20T11:34:02.343Z,79.65
2023-02-20T11:36:36.849Z,79.60
2023-02-20T11:39:15.405Z,79.22
2023-02-20T11:41:42.992Z,79.80
2023-02-20T11:44:22.726Z,79.28
2023-02-20T11:47:21.508Z,79.45
2023-02-20T11:50:18.623Z,79.19
2023-02-20T11:53:03.078Z,79.42
2023-02-20T11:55:30.545Z,79.06
2023-02-20T11:57:58.321Z,79.53
2023-02-20T12:00:26.898Z,79.17
2023-02-20T12:02:56.821Z,79.18
2023-02-20T12:05:39.545Z,79.37
2023-02-20T12:08:30.707Z,79.38
2023-02-20T12:11:01.546Z,79.30
2023-02-20T12:13:31.181Z,79.35
2023-02-20T12:16:07.198Z,79.08
2023-02-20T12:18:45.564Z,79.16
2023-02-20T12:21:27.900Z,79.33
2023-02-20T12:24:12.538Z,79.46
2023-02-20T12:26:51.500Z,79.30
2023-02-20T12:29:34.355Z,79.27
2023-02-20T12:32:18.812Z,79.55
2023-02-20T12:34:57.705Z,79.36
2023-02-20T12:37:40.377Z,79.30
2023-02-20T12:40:26.374Z,79.36
2023-02-20T12:43:02.159Z,79.07
2023-02-20T12:45:39.414Z,79.66
2023-02-20T12:48:27.709Z,79.60
2023-02-20T12:51:12.010Z,79.49
2023-02-20T12:53:57.154Z,79.55
2023-02-20T12:56:46.677Z,79.57
2023-02-20T12:59:25.384Z,79.74
2023-02-20T13:01:54.046Z,79.52
2023-02-20T13:04:29.447Z,79.37
2023-02-20T13:07:03.436Z,79.66
2023-02-20T13:09:35.504Z,79.45
2023-02-20T13:12:06.811Z,79.69
2023-02-20T13:14:44.882Z,79.88
2023-02-20T13:17:23.235Z,79.72
2023-02-20T13:19:56.871Z,79.52
2023-02-20T13:22:24.238Z,79.69
2023-02-20T13:24:53.054Z,79.66
2023-02-20T13:27:30.563Z,79.52
2023-02-20T13:29:59.172Z,79.84
2023-02-20T13:32:28.867Z,79.81
2023-02-20T13:35:45.121Z,79.98
2023-02-20T13:38:13.580Z,79.81
2023-02-20T13:40:44.577Z,79.88
2023-02-20T13:43:30.955Z,79.79
2023-02-20T13:46:14.976Z,79.95
2023-02-20T13:48:44.708Z,80.48
2023-02-20T13:51:35.532Z,79.93
2023-02-20T13:54:25.888Z,80.09
2023-02-20T13:56:59.734Z,80.16
2023-02-20T13:59:28.416Z,80.33
2023-02-20T14:02:04.682Z,80.10
2023-02-20T14:04:33.034Z,80.28
2023-02-20T14:07:00.383Z,80.36
2023-02-20T14:09:31.867Z,80.16
2023-02-20T14:12:13.436Z,80.29
2023-02-20T14:14:44.949Z,80.13
2023-02-20T14:17:16.211Z,80.36
2023-02-20T14:19:45.800Z,80.40
2023-02-20T14:22:28.725Z,80.25
2023-02-20T14:25:21.529Z,80.30
2023-02-20T14:27:50.809Z,80.29
2023-02-20T14:30:20.377Z,80.52
2023-02-20T14:32:49.964Z,80.22
2023-02-20T14:35:36.349Z,80.58
2023-02-20T14:38:13.579Z,80.08
2023-02-20T14:40:46.290Z,80.30
2023-02-20T14:43:19.842Z,80.07
2023-02-20T14:45:48.699Z,80.71
2023-02-20T14:48:25.294Z,80.41
2023-02-20T14:51:13.201Z,79.92
2023-02-20T14:53:41.273Z,80.31
2023-02-20T14:56:17.380Z,80.27
2023-02-20T14:58:46.948Z,79.98
2023-02-20T15:01:18.921Z,80.35
2023-02-20T15:04:00.510Z,80.32
2023-02-20T15:06:30.598Z,80.34
2023-02-20T15:09:03.525Z,80.29
2023-02-20T15:11:37.202Z,80.28
2023-02-20T15:14:18.755Z,80.20
2023-02-20T15:16:46.114Z,80.13
2023-02-20T15:19:34.390Z,80.43
2023-02-20T15:22:04.325Z,80.29
2023-02-20T15:24:36.976Z,80.66
2023-02-20T15:27:16.844Z,80.24
2023-02-20T15:29:46.897Z,80.84
2023-02-20T15:32:24.094Z,80.13
2023-02-20T15:34:55.702Z,80.56
2023-02-20T15:37:33.792Z,80.55
2023-02-20T15:40:20.598Z,80.39
2023-02-20T15:42:48.399Z,80.48
2023-02-20T15:45:17.111Z,80.54
2023-02-20T15:47:44.616Z,80.78
2023-02-20T15:50:12.202Z,81.01
2023-02-20T15:52:39.866Z,80.53
2023-02-20T15:55:07.507Z,80.81
2023-02-20T15:57:34.722Z,80.66
2023-02-20T16:00:02.271Z,80.72
2023-02-20T16:02:33.538Z,80.70
2023-02-20T16:05:01.060Z,81.13
2023-02-20T16:07:30.075Z,81.01
2023-02-20T16:09:57.477Z,80.85
2023-02-20T16:12:28.605Z,80.68
2023-02-20T16:14:55.871Z,81.02
2023-02-20T16:17:25.821Z,81.38
2023-02-20T16:19:55.445Z,81.46
2023-02-20T16:22:22.770Z,81.35
2023-02-20T16:24:50.032Z,81.36
2023-02-20T16:27:25.051Z,81.49
2023-02-20T16:29:54.138Z,81.46
2023-02-20T16:32:24.836Z,81.44
2023-02-20T16:34:56.670Z,81.53
2023-02-20T16:37:25.141Z,81.43
2023-02-20T16:39:52.507Z,81.63
2023-02-20T16:42:33.842Z,82.27
2023-02-20T16:45:03.954Z,81.80
2023-02-20T16:47:31.655Z,82.48
2023-02-20T16:50:01.768Z,82.48
2023-02-20T16:52:35.836Z,82.45
2023-02-20T16:55:05.106Z,82.62
2023-02-20T16:57:32.485Z,82.57
2023-02-20T17:00:00.879Z,82.71
2023-02-20T17:02:31.527Z,82.67
2023-02-20T17:05:00.730Z,82.27
2023-02-20T17:07:30.328Z,82.80
2023-02-20T17:09:58.001Z,82.51
2023-02-20T17:12:26.572Z,82.71
2023-02-20T17:14:54.120Z,82.82
2023-02-20T17:17:21.812Z,82.88
2023-02-20T17:19:52.934Z,83.19
2023-02-20T17:22:24.827Z,83.39
2023-02-20T17:24:52.668Z,83.29
2023-02-20T17:27:20.976Z,83.21
2023-02-20T17:29:48.642Z,83.43
2023-02-20T17:32:19.107Z,83.40
2023-02-20T17:34:46.420Z,83.96
2023-02-20T17:37:16.442Z,83.48
2023-02-20T17:39:45.037Z,83.78
2023-02-20T17:42:12.803Z,83.89
2023-02-20T17:44:40.725Z,83.92
2023-02-20T17:47:10.593Z,83.99
2023-02-20T17:49:41.053Z,83.78
2023-02-20T17:52:09.388Z,84.25
2023-02-20T17:54:37.492Z,84.36
2023-02-20T17:57:06.240Z,84.39
2023-02-20T17:59:37.955Z,84.13
2023-02-20T18:02:05.326Z,84.21
2023-02-20T18:04:32.667Z,84.40
2023-02-20T18:07:00.901Z,84.45
2023-02-20T18:09:28.409Z,84.57
2023-02-20T18:11:56.191Z,84.24
2023-02-20T18:14:25.052Z,84.20
2023-02-20T18:16:52.297Z,84.21
2023-02-20T18:19:20.509Z,84.61
2023-02-20T18:21:52.047Z,84.34
2023-02-20T18:24:24.721Z,84.53
2023-02-20T18:26:52.669Z,84.45
2023-02-20T18:29:21.157Z,84.45
2023-02-20T18:31:50.089Z,84.19
2023-02-20T18:34:18.442Z,84.70
2023-02-20T18:36:45.904Z,84.35
2023-02-20T18:39:14.957Z,84.21
2023-02-20T18:41:48.047Z,84.17
2023-02-20T18:44:15.423Z,84.14
2023-02-20T18:46:42.625Z,84.60
2023-02-20T18:49:11.683Z,84.21
2023-02-20T18:51:40.293Z,84.09
2023-02-20T18:54:09.423Z,84.39
2023-02-20T18:56:38.104Z,84.24
2023-02-20T18:59:05.522Z,83.97
2023-02-20T19:01:34.143Z,84.33
2023-02-20T19:04:05.808Z,84.27
2023-02-20T19:06:40.795Z,84.25
2023-02-20T19:09:08.533Z,84.14
2023-02-20T19:11:38.972Z,84.27
2023-02-20T19:14:06.545Z,83.76
2023-02-20T19:16:33.904Z,83.95
2023-02-20T19:19:01.330Z,83.73
2023-02-20T19:21:28.583Z,84.19
2023-02-20T19:23:57.330Z,83.94
2023-02-20T19:26:24.582Z,84.33
2023-02-20T19:28:51.872Z,84.19
2023-02-20T19:31:19.676Z,83.94
2023-02-20T19:33:48.661Z,84.33
2023-02-20T19:36:15.895Z,83.99
2023-02-20T19:38:43.155Z,83.88
2023-02-20T19:41:14.805Z,84.08
2023-02-20T19:43:42.669Z,84.22
2023-02-20T19:46:14.771Z,84.17
2023-02-20T19:48:44.639Z,84.42
2023-02-20T19:51:12.308Z,84.38
2023-02-20T19:53:40.408Z,84.36
2023-02-20T19:56:08.276Z,84.24
2023-02-20T19:58:40.208Z,84.28
2023-02-20T20:01:07.930Z,84.38
2023-02-20T20:03:37.518Z,84.28
2023-02-20T20:06:08.222Z,84.07
2023-02-20T20:08:36.061Z,84.17
2023-02-20T20:11:03.637Z,84.30
2023-02-20T20:13:31.287Z,84.14
2023-02-20T20:16:00.270Z,84.15
2023-02-20T20:18:27.941Z,84.17
2023-02-20T20:20:55.371Z,84.31
2023-02-20T20:23:22.626Z,84.52
2023-02-20T20:25:49.959Z,84.42
2023-02-20T20:28:17.266Z,84.20
2023-02-20T20:30:44.623Z,84.26
2023-02-20T20:33:13.594Z,84.30
2023-02-20T20:35:40.852Z,83.94
2023-02-20T20:38:08.690Z,84.10
2023-02-20T20:40:35.989Z,84.32
2023-02-20T20:43:03.568Z,84.04
2023-02-20T20:45:30.948Z,84.45
2023-02-20T20:47:58.255Z,84.15
2023-02-20T20:50:31.019Z,84.20
2023-02-20T20:53:00.622Z,84.05
2023-02-20T20:55:28.572Z,84.13
2023-02-20T20:57:56.268Z,84.15
2023-02-20T21:00:26.011Z,84.10
2023-02-20T21:02:54.377Z,84.16
2023-02-20T21:05:25.021Z,84.09
2023-02-20T21:07:53.890Z,84.31
2023-02-20T21:10:21.197Z,83.76
2023-02-20T21:12:48.789Z,84.03
2023-02-20T21:15:16.513Z,84.28
2023-02-20T21:17:44.444Z,84.04
2023-02-20T21:20:13.902Z,83.87
2023-02-20T21:22:41.201Z,84.16
2023-02-20T21:25:10.049Z,83.72
2023-02-20T21:27:37.378Z,83.96
2023-02-20T21:30:06.314Z,84.09
2023-02-20T21:32:33.660Z,84.43
2023-02-20T21:35:00.892Z,84.15
2023-02-20T21:37:28.383Z,84.06
2023-02-20T21:39:55.623Z,84.34
2023-02-20T21:42:43.026Z,84.03
2023-02-20T21:45:10.675Z,84.06
2023-02-20T21:47:38.201Z,84.09
2023-02-20T21:50:06.676Z,83.71
2023-02-20T21:52:36.782Z,84.23
2023-02-20T21:55:05.727Z,84.13
2023-02-20T21:57:34.433Z,84.10
2023-02-20T22:00:01.735Z,84.21
2023-02-20T22:02:34.026Z,84.23
2023-02-20T22:05:01.319Z,84.43
2023-02-20T22:07:49.259Z,84.44
2023-02-20T22:10:35.366Z,84.49
2023-02-20T22:13:23.393Z,84.50
2023-02-20T22:16:09.427Z,84.72
2023-02-20T22:18:55.786Z,84.94
2023-02-20T22:21:43.178Z,84.60
2023-02-20T22:24:37.859Z,84.54
2023-02-20T22:27:25.437Z,84.49
2023-02-20T22:30:13.607Z,84.58
2023-02-20T22:32:59.757Z,84.73
2023-02-20T22:35:45.931Z,84.55
2023-02-20T22:38:31.581Z,84.66
2023-02-20T22:41:17.498Z,84.39
2023-02-20T22:44:03.620Z,84.64
2023-02-20T22:46:50.976Z,84.37
2023-02-20T22:49:37.086Z,84.42
2023-02-20T22:52:22.921Z,84.33
2023-02-20T22:55:09.085Z,84.41
2023-02-20T22:57:55.182Z,84.62
2023-02-20T23:00:40.720Z,84.31
2023-02-20T23:03:27.888Z,84.19
2023-02-20T23:06:19.084Z,84.19
2023-02-20T23:09:07.100Z,84.18
2023-02-20T23:11:53.760Z,83.96
2023-02-20T23:14:39.889Z,83.95
2023-02-20T23:17:35.531Z,83.81
2023-02-20T23:20:25.034Z,83.98
2023-02-20T23:23:11.475Z,83.63
2023-02-20T23:25:57.434Z,83.77
2023-02-20T23:28:43.181Z,83.68
2023-02-20T23:31:29.300Z,83.70
2023-02-20T23:34:15.326Z,83.90
2023-02-20T23:37:06.261Z,83.83
2023-02-20T23:39:52.733Z,84.11
2023-02-20T23:42:39.407Z,83.54
2023-02-20T23:45:26.993Z,83.64
2023-02-20T23:48:13.115Z,83.82
2023-02-20T23:50:59.359Z,83.69
2023-02-20T23:53:46.752Z,83.68
2023-02-20T23:56:33.215Z,83.86
2023-02-20T23:59:19.365Z,83.78
